Time;durP1;ratioP1;P1;durP2;ratioP2;P2;SDS_P1;SDS_P2;PMS_P1;PMS_P2;Temp;Humidity;BMP_temperature;BMP_pressure;BME280_temperature;BME280_humidity;BME280_pressure;Samples;Min_cycle;Max_cycle;Signal;HPM_P1;HPM_P2
2023/08/16 00:02:16;;;;;;;3.53;2.50;;;19.20;99.90;;;19.27;100.00;97496.75;5046696;28;20033;-39
2023/08/16 00:04:42;;;;;;;2.60;2.30;;;19.30;99.90;;;19.23;100.00;97490.75;5052666;28;20029;-40
2023/08/16 00:07:08;;;;;;;4.47;2.88;;;19.30;99.90;;;19.27;100.00;97510.13;5039653;28;20040;-41
2023/08/16 00:09:34;;;;;;;3.92;2.30;;;19.30;99.90;;;19.29;100.00;97502.88;5030856;28;20041;-40
2023/08/16 00:11:59;;;;;;;3.35;2.40;;;19.30;99.90;;;19.30;100.00;97501.88;5030405;28;21389;-41
2023/08/16 00:14:25;;;;;;;4.07;2.30;;;19.30;99.90;;;19.29;100.00;97504.66;5032434;28;20032;-40
2023/08/16 00:16:51;;;;;;;4.28;2.40;;;19.40;99.90;;;19.31;100.00;97506.28;5029534;28;20029;-40
2023/08/16 00:19:17;;;;;;;2.92;2.58;;;19.40;99.90;;;19.26;100.00;97481.69;5034260;28;20617;-40
2023/08/16 00:21:43;;;;;;;2.42;2.20;;;19.40;99.90;;;19.37;100.00;97481.78;5037538;28;20435;-42
2023/08/16 00:24:09;;;;;;;4.78;2.60;;;19.40;99.90;;;19.43;100.00;97470.66;5036681;28;20029;-39
2023/08/16 00:26:35;;;;;;;3.13;2.28;;;19.40;99.90;;;19.47;100.00;97455.25;5037725;28;20392;-39
2023/08/16 00:29:02;;;;;;;2.47;2.28;;;19.50;99.90;;;19.48;100.00;97448.06;5030834;28;20370;-41
2023/08/16 00:31:27;;;;;;;2.97;2.38;;;19.50;99.90;;;19.51;100.00;97459.41;5036828;28;20029;-40
2023/08/16 00:33:53;;;;;;;3.33;3.00;;;19.60;99.90;;;19.53;100.00;97467.31;5036222;28;20024;-42
2023/08/16 00:36:19;;;;;;;6.22;2.45;;;19.60;99.90;;;19.49;100.00;97480.06;5038832;28;20469;-40
2023/08/16 00:38:44;;;;;;;3.08;2.42;;;19.60;99.90;;;19.46;100.00;97481.09;5039425;28;20031;-41
2023/08/16 00:41:11;;;;;;;4.25;2.50;;;19.50;99.90;;;19.40;100.00;97476.22;5037380;28;20051;-40
2023/08/16 00:43:37;;;;;;;3.55;2.55;;;19.50;99.90;;;19.36;100.00;97473.84;5037283;28;20119;-40
2023/08/16 00:46:05;;;;;;;4.53;2.72;;;19.40;99.90;;;19.32;100.00;97467.88;5032372;28;20111;-40
2023/08/16 00:48:35;;;;;;;2.72;2.38;;;19.40;99.90;;;19.23;100.00;97453.34;5034445;28;20499;-40
2023/08/16 00:51:01;;;;;;;3.65;2.65;;;19.40;99.90;;;19.26;100.00;97461.16;5036481;28;20018;-40
2023/08/16 00:53:30;;;;;;;3.20;2.50;;;19.40;99.90;;;19.29;100.00;97472.59;5033384;28;20020;-40
2023/08/16 00:55:57;;;;;;;6.47;3.05;;;19.30;99.90;;;19.24;100.00;97473.78;5023450;28;20024;-40
2023/08/16 00:58:23;;;;;;;4.13;2.97;;;19.30;99.90;;;19.17;100.00;97456.47;5033891;28;20174;-40
2023/08/16 01:00:49;;;;;;;7.47;3.08;;;19.30;99.90;;;19.17;100.00;97472.50;5031519;28;20064;-40
2023/08/16 01:03:15;;;;;;;4.28;2.90;;;19.20;99.90;;;19.13;100.00;97468.34;5036314;28;20405;-39
2023/08/16 01:05:41;;;;;;;2.75;2.50;;;19.20;99.90;;;19.07;100.00;97461.59;5039796;28;20025;-39
2023/08/16 01:08:07;;;;;;;4.60;3.00;;;19.10;99.90;;;19.03;100.00;97452.09;5039903;28;20025;-41
2023/08/16 01:10:59;;;;;;;4.90;2.78;;;19.10;99.90;;;18.98;100.00;97442.69;5029614;28;20037;-40
2023/08/16 01:13:29;;;;;;;4.25;2.90;;;19.00;99.90;;;18.94;100.00;97438.53;5029989;28;20063;-40
2023/08/16 01:15:57;;;;;;;5.00;3.00;;;19.00;99.90;;;18.88;100.00;97439.81;5032954;28;20032;-41
2023/08/16 01:18:25;;;;;;;3.72;2.83;;;18.90;99.90;;;18.84;100.00;97440.97;5026939;28;20037;-40
2023/08/16 01:20:53;;;;;;;4.93;3.42;;;18.80;99.90;;;18.78;100.00;97446.72;5029215;28;20355;-40
2023/08/16 01:24:18;;;;;;;3.70;3.15;;;18.80;99.90;;;18.74;100.00;97443.41;5026862;28;20341;-41
2023/08/16 01:30:25;;;;;;;3.85;3.00;;;18.80;99.90;;;18.69;100.00;97437.53;5015179;28;20049;-39
2023/08/16 01:32:51;;;;;;;4.53;3.08;;;18.70;99.90;;;18.65;100.00;97436.03;5032846;28;20037;-39
2023/08/16 01:35:17;;;;;;;3.42;2.90;;;18.70;99.90;;;18.63;100.00;97444.16;5030298;28;20061;-40
2023/08/16 01:37:43;;;;;;;4.18;2.95;;;18.60;99.90;;;18.61;100.00;97438.06;5037498;28;20056;-40
2023/08/16 01:40:10;;;;;;;3.10;2.80;;;18.60;99.90;;;18.62;100.00;97433.56;5033110;28;20091;-40
2023/08/16 01:42:47;;;;;;;3.60;2.97;;;18.70;99.90;;;18.61;100.00;97430.06;5035043;28;20028;-40
2023/08/16 01:45:15;;;;;;;3.72;3.00;;;18.70;99.90;;;18.57;100.00;97425.00;5029149;28;20036;-41
2023/08/16 01:47:41;;;;;;;3.95;2.90;;;18.60;99.90;;;18.63;100.00;97432.63;5033346;28;20041;-40
2023/08/16 01:50:08;;;;;;;5.25;2.80;;;18.60;99.90;;;18.64;100.00;97435.16;5037410;28;20025;-41
2023/08/16 01:52:35;;;;;;;5.10;3.47;;;18.60;99.90;;;18.60;100.00;97422.13;5034742;28;20383;-40
2023/08/16 01:55:00;;;;;;;6.95;3.15;;;18.70;99.90;;;18.66;100.00;97427.03;5041180;28;20194;-40
2023/08/16 01:57:26;;;;;;;3.63;2.92;;;18.70;99.90;;;18.66;100.00;97424.38;5037340;28;20036;-40
2023/08/16 01:59:52;;;;;;;5.32;3.20;;;18.70;99.90;;;18.63;100.00;97422.78;5036674;28;20025;-40
2023/08/16 02:02:17;;;;;;;6.72;3.00;;;18.60;99.90;;;18.60;100.00;97428.31;5029859;28;20060;-40
2023/08/16 02:04:43;;;;;;;4.57;3.15;;;18.60;99.90;;;18.58;100.00;97432.06;5029135;28;20032;-41
2023/08/16 02:07:09;;;;;;;4.18;3.17;;;18.60;99.90;;;18.56;100.00;97436.66;5029009;28;20029;-39
2023/08/16 02:09:34;;;;;;;4.07;2.72;;;18.60;99.90;;;18.52;100.00;97420.00;5029379;28;20459;-41
2023/08/16 02:12:00;;;;;;;3.60;3.13;;;18.60;99.90;;;18.52;100.00;97417.34;5031378;28;20032;-40
2023/08/16 02:14:26;;;;;;;3.38;2.90;;;18.60;99.90;;;18.50;100.00;97417.44;5028902;28;20481;-40
2023/08/16 02:16:52;;;;;;;4.47;3.10;;;18.50;99.90;;;18.48;100.00;97419.38;5027303;28;20195;-40
2023/08/16 02:19:17;;;;;;;2.92;2.63;;;18.50;99.90;;;18.45;100.00;97414.22;5028665;28;20033;-40
2023/08/16 02:21:43;;;;;;;5.25;3.50;;;18.50;99.90;;;18.45;100.00;97419.56;5030286;28;20060;-40
2023/08/16 02:24:09;;;;;;;3.95;2.97;;;18.50;99.90;;;18.44;100.00;97414.31;5028348;28;20401;-40
2023/08/16 02:26:35;;;;;;;3.38;2.83;;;18.50;99.90;;;18.43;100.00;97407.25;5029842;28;20045;-40
2023/08/16 02:29:00;;;;;;;5.53;3.38;;;18.50;99.90;;;18.41;100.00;97404.72;5035929;28;20095;-40
2023/08/16 02:31:26;;;;;;;6.25;3.17;;;18.40;99.90;;;18.39;100.00;97397.75;5033095;28;20029;-40
2023/08/16 02:33:52;;;;;;;7.35;3.28;;;18.40;99.90;;;18.35;100.00;97394.44;5029031;28;20482;-40
2023/08/16 02:36:18;;;;;;;3.65;3.13;;;18.40;99.90;;;18.36;100.00;97392.63;5037891;28;20163;-40
2023/08/16 02:38:43;;;;;;;4.80;3.33;;;18.40;99.90;;;18.34;100.00;97392.75;5035423;28;20084;-41
2023/08/16 02:41:09;;;;;;;4.20;3.45;;;18.40;99.90;;;18.31;100.00;97388.47;5035519;28;20021;-40
2023/08/16 02:43:35;;;;;;;3.70;3.28;;;18.40;99.90;;;18.29;100.00;97378.88;5036197;28;20330;-41
2023/08/16 02:46:00;;;;;;;3.78;3.28;;;18.30;99.90;;;18.24;100.00;97379.16;5033815;28;20025;-40
2023/08/16 02:48:26;;;;;;;3.90;3.00;;;18.30;99.90;;;18.25;100.00;97390.69;5032860;28;20048;-40
2023/08/16 02:50:52;;;;;;;7.30;3.50;;;18.30;99.90;;;18.24;100.00;97391.66;5032872;28;20544;-41
2023/08/16 02:53:17;;;;;;;3.30;3.00;;;18.30;99.90;;;18.24;100.00;97394.34;5035621;28;20022;-40
2023/08/16 02:55:43;;;;;;;5.68;3.17;;;18.30;99.90;;;18.20;100.00;97392.84;5040120;28;20559;-41
2023/08/16 02:58:09;;;;;;;4.20;3.15;;;18.20;99.90;;;18.17;100.00;97393.88;5036397;28;20033;-41
2023/08/16 03:00:34;;;;;;;6.18;3.20;;;18.20;99.90;;;18.16;100.00;97400.19;5033301;28;20480;-40
2023/08/16 03:03:00;;;;;;;4.45;3.30;;;18.20;99.90;;;18.15;100.00;97390.47;5034812;28;20420;-39
2023/08/16 03:05:26;;;;;;;4.10;3.70;;;18.20;99.90;;;18.14;100.00;97388.75;5033386;28;20037;-41
2023/08/16 03:07:52;;;;;;;4.05;3.10;;;18.20;99.90;;;18.08;100.00;97389.19;5028141;28;20094;-40
2023/08/16 03:10:18;;;;;;;3.88;3.47;;;18.20;99.90;;;18.09;100.00;97390.91;5037614;28;20021;-40
2023/08/16 03:12:44;;;;;;;4.80;3.45;;;18.10;99.90;;;18.04;100.00;97391.19;5032212;28;20025;-40
2023/08/16 03:15:09;;;;;;;4.82;3.30;;;18.10;99.90;;;18.07;100.00;97401.69;5028344;28;20493;-41
2023/08/16 03:17:35;;;;;;;3.70;3.10;;;18.10;99.90;;;18.05;100.00;97400.06;5025330;28;20031;-42
2023/08/16 03:20:01;;;;;;;4.10;3.25;;;18.10;99.90;;;18.04;100.00;97404.53;5028662;28;20648;-40
2023/08/16 03:22:26;;;;;;;5.38;2.95;;;18.10;99.90;;;18.03;100.00;97409.97;5027895;28;20204;-40
2023/08/16 03:24:52;;;;;;;3.58;3.15;;;18.10;99.90;;;18.01;100.00;97422.56;5030242;28;20494;-41
2023/08/16 03:27:18;;;;;;;3.85;3.35;;;18.10;99.90;;;18.02;100.00;97425.13;5028804;28;20116;-40
2023/08/16 03:29:43;;;;;;;4.80;3.42;;;18.10;99.90;;;17.98;100.00;97430.75;5028373;28;20033;-40
2023/08/16 03:32:09;;;;;;;4.43;3.50;;;18.00;99.90;;;18.00;100.00;97435.06;5026300;28;20387;-41
2023/08/16 03:34:35;;;;;;;3.78;3.40;;;18.10;99.90;;;18.00;100.00;97444.84;5023582;28;20324;-41
2023/08/16 03:37:01;;;;;;;3.83;3.40;;;18.10;99.90;;;17.96;100.00;97438.88;5043752;28;20373;-41
2023/08/16 03:39:26;;;;;;;4.45;3.10;;;18.10;99.90;;;17.96;100.00;97438.03;5039145;28;20033;-41
2023/08/16 03:41:52;;;;;;;3.72;3.08;;;18.00;99.90;;;17.95;100.00;97444.34;5033174;28;20042;-41
2023/08/16 03:44:18;;;;;;;4.55;3.50;;;18.00;99.90;;;17.90;100.00;97461.47;5028594;28;20037;-41
2023/08/16 03:46:43;;;;;;;4.47;3.63;;;18.00;99.90;;;17.87;100.00;97453.69;5031532;28;20714;-39
2023/08/16 03:49:09;;;;;;;5.93;3.53;;;18.00;99.90;;;17.87;100.00;97466.16;5037279;28;20053;-40
2023/08/16 03:51:35;;;;;;;5.30;3.47;;;18.00;99.90;;;17.84;100.00;97475.19;5033442;28;20068;-40
2023/08/16 03:54:01;;;;;;;4.70;3.75;;;18.00;99.90;;;17.76;100.00;97469.50;5036621;28;20025;-40
2023/08/16 03:56:27;;;;;;;4.22;3.58;;;18.00;99.90;;;17.75;100.00;97492.66;5034575;28;20490;-40
2023/08/16 03:58:53;;;;;;;8.95;3.17;;;18.00;99.90;;;17.77;100.00;97513.06;5032205;28;20086;-41
2023/08/16 04:01:19;;;;;;;6.30;3.67;;;17.90;99.90;;;17.64;100.00;97508.50;5029471;28;20037;-40
2023/08/16 04:03:46;;;;;;;4.63;3.15;;;17.90;99.90;;;17.72;100.00;97530.19;5031086;28;20059;-40
2023/08/16 04:06:12;;;;;;;7.18;3.80;;;17.90;99.90;;;17.66;100.00;97525.25;5029990;28;20013;-41
2023/08/16 04:08:41;;;;;;;5.90;3.47;;;17.80;99.90;;;17.55;100.00;97520.59;5034395;28;20061;-41
2023/08/16 04:11:07;;;;;;;4.55;3.00;;;17.80;99.90;;;17.51;100.00;97532.41;5036802;28;20028;-40
2023/08/16 04:13:33;;;;;;;8.75;3.83;;;17.70;99.90;;;17.46;100.00;97530.97;5038892;28;20039;-40
2023/08/16 04:15:59;;;;;;;5.22;3.58;;;17.60;99.90;;;17.39;100.00;97532.31;5037861;28;20036;-41
2023/08/16 04:18:28;;;;;;;3.88;3.33;;;17.50;99.90;;;17.33;100.00;97523.75;5036845;28;20516;-39
2023/08/16 04:20:55;;;;;;;4.82;3.90;;;17.50;99.90;;;17.38;100.00;97533.28;5038668;28;20052;-40
2023/08/16 04:23:22;;;;;;;4.40;4.00;;;17.50;99.90;;;17.27;100.00;97510.81;5038081;28;20352;-40
2023/08/16 04:25:47;;;;;;;7.97;4.32;;;17.50;99.90;;;17.40;100.00;97526.03;5037825;28;20033;-40
2023/08/16 04:28:13;;;;;;;3.53;3.22;;;17.50;99.90;;;17.40;100.00;97529.56;5041076;28;20032;-42
2023/08/16 04:30:39;;;;;;;5.07;3.65;;;17.50;99.90;;;17.41;100.00;97519.75;5033280;28;20029;-41
2023/08/16 04:33:04;;;;;;;5.22;4.03;;;17.60;99.90;;;17.48;100.00;97524.59;5034363;28;20032;-40
2023/08/16 04:35:30;;;;;;;5.18;3.90;;;17.60;99.90;;;17.53;100.00;97521.63;5035874;28;20097;-42
2023/08/16 04:37:56;;;;;;;5.85;4.03;;;17.60;99.90;;;17.59;100.00;97510.59;5037662;28;20037;-40
2023/08/16 04:40:21;;;;;;;6.05;3.92;;;17.70;99.90;;;17.61;100.00;97503.34;5035483;28;20064;-42
2023/08/16 04:42:47;;;;;;;4.90;4.00;;;17.70;99.90;;;17.64;100.00;97519.16;5038226;28;20036;-40
2023/08/16 04:45:14;;;;;;;4.53;3.60;;;17.80;99.90;;;17.71;100.00;97509.81;5038671;28;20397;-40
2023/08/16 04:47:40;;;;;;;5.13;3.50;;;17.80;99.90;;;17.75;100.00;97506.00;5035354;28;20032;-40
2023/08/16 04:50:08;;;;;;;4.25;3.40;;;17.80;99.90;;;17.81;100.00;97512.75;5026758;28;20036;-41
2023/08/16 04:52:37;;;;;;;6.10;3.95;;;17.90;99.90;;;17.84;100.00;97507.22;5035611;28;20033;-39
2023/08/16 04:55:05;;;;;;;6.43;4.05;;;17.90;99.90;;;17.88;100.00;97492.75;5034652;28;20056;-40
2023/08/16 04:57:30;;;;;;;4.43;3.92;;;17.90;99.90;;;17.91;100.00;97489.03;5033204;28;20473;-40
2023/08/16 04:59:56;;;;;;;4.60;4.15;;;18.00;99.90;;;17.96;100.00;97486.91;5037202;28;20070;-40
2023/08/16 05:02:22;;;;;;;6.05;4.53;;;18.10;99.90;;;18.00;100.00;97475.09;5033412;28;20036;-41
2023/08/16 05:04:47;;;;;;;6.60;5.00;;;18.10;99.90;;;18.04;100.00;97467.75;5036245;28;20108;-40
2023/08/16 05:07:13;;;;;;;5.20;4.40;;;18.20;99.90;;;18.14;100.00;97471.47;5033780;28;20024;-41
2023/08/16 05:09:39;;;;;;;5.43;4.20;;;18.20;99.90;;;18.13;100.00;97453.78;5034851;28;20450;-40
2023/08/16 05:12:05;;;;;;;7.75;5.28;;;18.30;99.90;;;18.26;100.00;97472.50;5038766;28;20047;-40
2023/08/16 05:14:30;;;;;;;7.78;5.13;;;18.40;99.90;;;18.31;100.00;97470.38;5028729;28;20040;-42
2023/08/16 05:16:56;;;;;;;7.03;5.15;;;18.50;99.90;;;18.41;100.00;97473.25;5030123;28;20528;-42
2023/08/16 05:19:22;;;;;;;8.38;5.90;;;18.50;99.90;;;18.48;100.00;97467.44;5035270;28;20056;-40
2023/08/16 05:21:48;;;;;;;6.32;5.10;;;18.60;99.90;;;18.55;100.00;97464.31;5030368;28;20024;-41
2023/08/16 05:24:13;;;;;;;5.78;5.20;;;18.60;99.90;;;18.61;100.00;97461.22;5028995;28;20035;-40
2023/08/16 05:26:39;;;;;;;6.60;5.43;;;18.70;99.90;;;18.69;100.00;97459.75;5029252;28;20061;-41
2023/08/16 05:29:05;;;;;;;8.15;6.22;;;18.80;99.90;;;18.80;100.00;97460.81;5029420;28;20042;-40
2023/08/16 05:31:31;;;;;;;9.40;5.97;;;18.90;99.90;;;18.85;100.00;97464.91;5028830;28;20404;-41
2023/08/16 05:33:56;;;;;;;6.93;4.63;;;19.00;99.90;;;18.98;100.00;97466.72;5037196;28;20124;-40
2023/08/16 05:36:22;;;;;;;7.60;4.63;;;19.10;99.90;;;19.09;100.00;97474.84;5038574;28;20017;-41
2023/08/16 05:38:47;;;;;;;6.10;4.80;;;19.20;99.90;;;19.21;100.00;97482.00;5038889;28;20052;-40
2023/08/16 05:41:14;;;;;;;7.43;5.03;;;19.30;99.90;;;19.35;100.00;97480.19;5031915;28;20044;-41
2023/08/16 05:43:39;;;;;;;5.40;4.50;;;19.40;99.90;;;19.53;100.00;97496.72;5024602;28;20056;-41
2023/08/16 05:46:05;;;;;;;8.52;4.22;;;19.60;99.90;;;19.65;100.00;97499.38;5021526;28;20303;-40
2023/08/16 05:48:31;;;;;;;6.88;4.40;;;19.80;99.90;;;19.81;100.00;97504.50;5023434;28;20445;-40
2023/08/16 05:50:56;;;;;;;4.95;3.17;;;19.90;99.90;;;20.01;100.00;97502.19;5030826;28;20040;-40
2023/08/16 05:53:22;;;;;;;6.43;4.40;;;20.10;99.90;;;20.13;100.00;97500.41;5029259;28;20056;-40
2023/08/16 05:55:48;;;;;;;4.32;3.80;;;20.30;99.90;;;20.25;100.00;97480.75;5026021;28;20401;-40
2023/08/16 05:58:13;;;;;;;11.05;4.60;;;20.40;99.90;;;20.45;100.00;97497.16;5031971;28;20025;-42
2023/08/16 06:00:39;;;;;;;6.50;3.80;;;20.60;99.90;;;20.63;100.00;97495.78;5027030;28;20060;-41
2023/08/16 06:03:05;;;;;;;5.07;3.75;;;20.70;99.90;;;20.85;100.00;97497.66;5030333;28;20037;-40
2023/08/16 06:05:31;;;;;;;6.30;3.40;;;20.90;99.90;;;21.09;100.00;97497.59;5027381;28;20693;-42
2023/08/16 06:07:57;;;;;;;4.85;3.60;;;21.10;99.90;;;21.31;100.00;97501.25;5028505;28;20036;-40
2023/08/16 06:10:23;;;;;;;6.63;3.80;;;21.30;99.90;;;21.53;100.00;97509.38;5035398;28;20033;-39
2023/08/16 06:12:48;;;;;;;5.00;3.88;;;21.50;99.90;;;21.73;100.00;97498.81;5040862;28;20056;-40
2023/08/16 06:15:15;;;;;;;4.93;3.53;;;21.80;99.90;;;21.81;100.00;97493.69;5045027;28;20033;-41
2023/08/16 06:17:41;;;;;;;5.65;3.80;;;21.90;99.90;;;22.02;100.00;97503.66;5049572;28;20023;-40
2023/08/16 06:20:09;;;;;;;5.68;3.63;;;22.10;99.90;;;22.05;100.00;97492.66;5046215;28;20108;-40
2023/08/16 06:22:37;;;;;;;4.20;3.50;;;22.10;99.90;;;22.06;100.00;97484.50;5050277;28;20036;-40
2023/08/16 06:25:05;;;;;;;6.15;3.80;;;22.20;99.90;;;22.16;100.00;97495.31;5051185;28;20450;-38
2023/08/16 06:27:30;;;;;;;5.82;3.63;;;22.20;99.90;;;22.18;100.00;97501.44;5050356;28;20104;-39
2023/08/16 06:29:56;;;;;;;4.88;3.55;;;22.20;99.90;;;22.18;100.00;97495.19;5042904;28;20027;-39
2023/08/16 06:32:22;;;;;;;5.13;3.42;;;22.20;99.90;;;22.22;100.00;97497.50;5050188;28;20028;-41
2023/08/16 06:34:47;;;;;;;3.53;3.10;;;22.20;99.90;;;22.19;100.00;97492.38;5062096;28;20040;-42
2023/08/16 06:37:13;;;;;;;4.50;3.00;;;22.30;99.90;;;22.28;100.00;97504.22;5053919;28;20093;-40
2023/08/16 06:39:39;;;;;;;3.80;3.03;;;22.30;99.90;;;22.33;100.00;97501.19;5045996;28;20037;-40
2023/08/16 06:42:06;;;;;;;4.03;3.00;;;22.30;99.90;;;22.30;100.00;97497.75;5042181;28;20049;-41
2023/08/16 06:44:31;;;;;;;4.82;3.13;;;22.30;99.90;;;22.36;100.00;97493.72;5064850;28;20021;-40
2023/08/16 06:46:57;;;;;;;6.10;3.30;;;22.40;99.90;;;22.43;100.00;97494.03;5048034;28;20044;-39
2023/08/16 06:49:24;;;;;;;4.93;3.15;;;22.40;99.90;;;22.44;100.00;97498.44;5064496;28;20173;-42
2023/08/16 06:51:50;;;;;;;6.43;3.10;;;22.40;99.90;;;22.50;100.00;97508.66;5046300;28;20029;-40
2023/08/16 06:54:16;;;;;;;6.30;3.33;;;22.40;99.90;;;22.56;100.00;97505.47;5050015;28;20403;-40
2023/08/16 06:56:41;;;;;;;4.18;3.08;;;22.50;99.90;;;22.69;100.00;97503.44;5053839;28;20041;-42
2023/08/16 06:59:08;;;;;;;3.70;3.08;;;22.60;99.90;;;22.91;100.00;97498.91;5051691;28;20030;-40
2023/08/16 07:01:33;;;;;;;4.38;3.22;;;22.90;99.90;;;23.12;100.00;97498.09;5068403;28;20140;-41
2023/08/16 07:03:59;;;;;;;4.00;3.22;;;23.10;99.90;;;23.38;100.00;97499.38;5053142;28;20025;-41
2023/08/16 07:06:26;;;;;;;5.18;3.50;;;23.40;99.90;;;23.63;100.00;97505.25;5053376;28;20480;-41
2023/08/16 07:08:52;;;;;;;6.82;3.85;;;23.60;99.90;;;23.71;100.00;97508.13;5050840;28;20024;-42
2023/08/16 07:11:18;;;;;;;6.22;3.60;;;23.70;99.90;;;23.83;100.00;97514.28;5053531;28;20032;-41
2023/08/16 07:13:44;;;;;;;6.05;3.55;;;23.80;99.90;;;23.75;100.00;97497.94;5056511;28;20024;-40
2023/08/16 07:16:09;;;;;;;5.18;3.97;;;23.80;99.90;;;23.78;100.00;97506.59;5055807;28;20086;-41
2023/08/16 07:18:35;;;;;;;4.68;3.83;;;23.80;99.90;;;23.89;100.00;97511.06;5053973;28;20479;-43
2023/08/16 07:21:01;;;;;;;4.32;3.63;;;23.90;99.90;;;24.08;100.00;97514.78;5055377;28;20322;-39
2023/08/16 07:23:27;;;;;;;5.00;3.55;;;24.10;99.90;;;24.19;100.00;97512.84;5055971;28;20024;-41
2023/08/16 07:25:56;;;;;;;4.57;4.15;;;24.30;99.90;;;24.36;100.00;97516.66;5054579;28;20089;-41
2023/08/16 07:28:24;;;;;;;6.20;4.18;;;24.30;99.90;;;24.47;100.00;97514.84;5053867;28;20024;-41
2023/08/16 07:30:53;;;;;;;6.65;3.80;;;24.50;99.90;;;24.50;100.00;97522.66;5054926;28;20021;-41
2023/08/16 07:33:19;;;;;;;5.35;4.03;;;24.40;99.90;;;24.54;100.00;97513.31;5054743;28;20382;-41
2023/08/16 07:35:45;;;;;;;5.88;4.13;;;24.40;99.90;;;24.48;100.00;97511.13;5053895;28;20223;-41
2023/08/16 07:38:11;;;;;;;4.85;4.32;;;24.40;99.90;;;24.46;100.00;97519.38;5055134;28;20159;-40
2023/08/16 07:40:37;;;;;;;9.85;3.88;;;24.40;99.90;;;24.38;100.00;97514.69;5054397;28;20037;-41
2023/08/16 07:43:03;;;;;;;5.28;3.90;;;24.30;99.90;;;24.40;100.00;97522.63;5049173;28;20029;-42
2023/08/16 07:45:28;;;;;;;9.43;4.65;;;24.30;99.90;;;24.24;100.00;97507.00;5051490;28;20029;-41
2023/08/16 07:47:54;;;;;;;5.38;3.78;;;24.20;99.90;;;24.29;100.00;97509.28;5054353;28;20047;-41
2023/08/16 07:50:20;;;;;;;6.40;4.30;;;24.20;99.90;;;24.46;100.00;97527.47;5049479;28;20033;-42
2023/08/16 07:52:45;;;;;;;6.10;4.50;;;24.30;99.90;;;24.45;100.00;97525.75;5052845;28;20036;-42
2023/08/16 07:55:12;;;;;;;5.55;4.43;;;24.30;99.90;;;24.51;100.00;97529.72;5055673;28;20047;-40
2023/08/16 07:57:38;;;;;;;5.60;4.13;;;24.30;99.90;;;24.51;100.00;97518.94;5054551;28;20017;-41
2023/08/16 08:00:06;;;;;;;4.40;3.60;;;24.30;99.90;;;24.65;100.00;97525.81;5055320;28;20051;-41
2023/08/16 08:02:32;;;;;;;6.30;4.28;;;24.40;99.90;;;24.68;100.00;97514.75;5067387;28;20486;-41
2023/08/16 08:05:01;;;;;;;5.15;4.40;;;24.50;99.90;;;24.71;100.00;97519.81;5054131;28;20021;-43
2023/08/16 08:07:28;;;;;;;6.35;4.38;;;24.50;99.90;;;24.76;100.00;97522.94;5057753;28;20025;-40
2023/08/16 08:09:57;;;;;;;5.28;4.30;;;24.50;99.90;;;24.81;100.00;97509.91;5055404;28;20044;-42
2023/08/16 08:12:23;;;;;;;4.88;3.95;;;24.60;99.90;;;24.97;100.00;97514.69;5053391;28;20021;-41
2023/08/16 08:14:49;;;;;;;6.53;4.53;;;24.70;99.90;;;24.98;100.00;97515.53;5055820;28;20017;-42
2023/08/16 08:17:15;;;;;;;6.05;4.50;;;24.80;99.90;;;24.92;100.00;97500.78;5054090;28;20025;-44
2023/08/16 08:19:41;;;;;;;5.68;4.50;;;24.90;99.90;;;24.99;100.00;97518.09;5050277;28;20504;-43
2023/08/16 08:22:07;;;;;;;7.13;4.43;;;24.90;99.90;;;25.03;100.00;97521.38;5059718;28;20055;-41
2023/08/16 08:24:33;;;;;;;6.35;4.40;;;24.90;99.90;;;24.97;100.00;97512.00;5072769;28;20595;-42
2023/08/16 08:26:59;;;;;;;6.80;4.20;;;24.90;99.90;;;25.01;100.00;97517.97;5053255;28;20032;-43
2023/08/16 08:29:25;;;;;;;8.10;4.38;;;24.90;99.90;;;25.05;100.00;97522.06;5053490;28;20025;-43
2023/08/16 08:31:53;;;;;;;10.25;4.13;;;24.90;99.90;;;25.09;100.00;97523.50;5049700;28;20033;-41
2023/08/16 08:34:19;;;;;;;9.85;5.20;;;24.90;99.90;;;25.08;100.00;97524.47;5050234;28;20310;-43
2023/08/16 08:36:45;;;;;;;8.68;5.35;;;25.00;99.90;;;25.03;100.00;97518.66;5053869;28;20425;-41
2023/08/16 08:39:10;;;;;;;7.75;4.82;;;24.90;99.90;;;24.96;100.00;97516.56;5053365;28;20013;-40
2023/08/16 08:41:37;;;;;;;9.18;4.90;;;24.90;99.90;;;24.97;100.00;97512.00;5048626;28;20025;-40
2023/08/16 08:44:05;;;;;;;7.03;5.00;;;24.90;99.90;;;24.96;100.00;97513.84;5051215;28;20079;-41
2023/08/16 08:46:31;;;;;;;7.15;5.03;;;24.90;99.90;;;24.98;100.00;97512.84;5051455;28;20876;-42
2023/08/16 08:49:01;;;;;;;6.20;4.70;;;25.00;99.90;;;25.06;100.00;97519.22;5052539;28;20380;-41
2023/08/16 08:51:31;;;;;;;5.47;4.50;;;25.00;99.90;;;25.15;100.00;97507.56;5052186;28;20028;-40
2023/08/16 08:53:57;;;;;;;7.63;4.97;;;25.10;99.90;;;25.32;100.00;97519.50;5052606;28;20021;-41
2023/08/16 08:56:26;;;;;;;7.88;5.05;;;25.30;99.90;;;25.51;100.00;97513.16;5051651;28;20027;-42
2023/08/16 08:58:55;;;;;;;6.25;4.70;;;25.50;99.90;;;25.89;100.00;97521.25;5051434;28;20037;-41
2023/08/16 09:01:23;;;;;;;7.82;5.50;;;25.80;99.90;;;26.17;100.00;97532.09;5051143;28;20286;-44
2023/08/16 09:03:52;;;;;;;6.72;4.85;;;26.20;99.90;;;26.44;100.00;97523.91;5050900;28;20025;-41
2023/08/16 09:06:18;;;;;;;7.20;4.72;;;26.40;99.90;;;26.66;97.01;97527.19;5051101;28;20020;-43
2023/08/16 09:08:45;;;;;;;8.30;4.93;;;26.60;99.90;;;26.87;98.22;97531.44;5064862;28;20035;-42
2023/08/16 09:11:15;;;;;;;8.55;5.10;;;26.80;99.90;;;27.03;100.00;97527.00;5052373;28;20029;-41
2023/08/16 09:13:40;;;;;;;5.72;4.93;;;27.00;99.90;;;27.03;91.85;97526.16;5049382;28;20335;-41
2023/08/16 09:16:06;;;;;;;8.73;4.97;;;27.10;99.90;;;27.11;89.54;97520.78;5047777;28;20305;-41
2023/08/16 09:18:32;;;;;;;6.68;4.93;;;27.10;99.90;;;26.98;94.59;97512.25;5048282;28;20033;-42
2023/08/16 09:20:59;;;;;;;7.75;4.80;;;27.00;99.90;;;26.97;99.14;97508.72;5051181;28;20087;-41
2023/08/16 09:23:25;;;;;;;7.55;5.15;;;26.90;99.90;;;27.01;94.24;97506.53;5050719;28;20406;-42
2023/08/16 09:25:51;;;;;;;7.57;4.90;;;27.00;99.90;;;27.15;100.00;97508.66;5047839;28;20040;-41
2023/08/16 09:28:17;;;;;;;7.97;4.80;;;27.10;99.90;;;27.29;94.18;97501.00;5051943;28;20025;-42
2023/08/16 09:30:43;;;;;;;6.85;4.70;;;27.20;99.90;;;27.45;92.57;97494.81;5048921;28;20028;-39
2023/08/16 09:33:13;;;;;;;6.47;4.80;;;27.30;99.90;;;27.48;90.16;97492.66;5049307;28;20076;-39
2023/08/16 09:35:51;;;;;;;5.38;4.25;;;27.40;99.90;;;27.44;88.72;97480.44;5050320;28;20025;-40
2023/08/16 09:38:21;;;;;;;7.00;5.10;;;27.30;99.90;;;27.57;88.59;97491.66;5045836;28;20152;-41
2023/08/16 09:40:51;;;;;;;9.30;4.85;;;27.40;99.90;;;27.58;87.49;97490.69;5048413;28;20491;-40
2023/08/16 09:43:18;;;;;;;7.15;4.80;;;27.50;99.90;;;27.55;86.60;97482.03;5047888;28;20033;-40
2023/08/16 09:45:54;;;;;;;6.05;4.75;;;27.40;99.90;;;27.55;90.11;97485.56;5055937;28;20028;-39
2023/08/16 09:48:21;;;;;;;5.28;4.78;;;27.40;99.90;;;27.51;88.20;97484.22;5049796;28;20110;-40
2023/08/16 09:50:47;;;;;;;7.40;4.25;;;27.40;99.90;;;27.37;92.48;97485.66;5046645;28;20027;-39
2023/08/16 09:53:13;;;;;;;6.85;4.80;;;27.20;99.90;;;27.28;89.76;97486.63;5050094;28;20496;-39
2023/08/16 09:55:42;;;;;;;6.45;4.90;;;27.10;99.90;;;27.32;87.90;97489.84;5046364;28;20029;-42
2023/08/16 09:58:08;;;;;;;6.45;4.75;;;27.20;99.90;;;27.33;88.86;97478.00;5051140;28;20286;-40
2023/08/16 10:00:34;;;;;;;9.65;5.20;;;27.20;99.90;;;27.49;91.54;97483.50;5049241;28;20501;-39
2023/08/16 10:03:03;;;;;;;6.03;4.90;;;27.40;99.90;;;27.76;95.94;97487.00;5046659;28;20180;-40
2023/08/16 10:05:29;;;;;;;6.03;4.90;;;27.60;99.90;;;27.92;89.10;97480.84;5046058;28;20032;-41
2023/08/16 10:07:59;;;;;;;7.68;4.60;;;27.80;99.90;;;28.01;86.39;97481.72;5048721;28;20043;-40
2023/08/16 10:10:25;;;;;;;5.20;4.63;;;28.00;99.90;;;28.15;83.78;97489.19;5048050;28;20687;-40
2023/08/16 10:12:53;;;;;;;6.97;4.75;;;28.10;99.90;;;28.28;84.39;97486.00;5053662;28;20032;-41
2023/08/16 10:15:18;;;;;;;7.65;5.32;;;28.20;99.90;;;28.32;83.26;97479.25;5029466;28;20056;-40